Latest Coastal Weather Observations for Port Lincoln Airport

IDS60701

Issued at 10:02 pm CDT Saturday 20 December 2014 (issued every 10 minutes, with the page automatically refreshed every 10 minutes)

About coastal observations | Map of coastal stations | Coastal observations for SA | Marine services | Other Formats
Station Details ID: 018192 Name: PORT LINCOLN AWS Lat: -34.60 Lon: 135.88 Height: 8.5 m
Data from the previous 72 hours. | See also: Recent months at Port Lincoln Airport
Date/Time
CDT
Temp

°C
Wind Pressure Rain
since 9am
mm
Weather Cloud Vis
km
Sea
Height
m
Swell
Dir
 
Speed
knots
Gust
knots
hPa Trend Height
m
Period
s
Dir
20/10:00pm 16.8 ESE 5 6 1013.2 - 0.0 - - 10 - - - -
20/09:30pm 17.8 SE 8 10 1013.5 - 0.0 - - 10 - - - -
20/09:00pm 18.1 SE 9 10 1013.7 - 0.0 - - 10 - - - -
20/08:30pm 19.0 SE 10 11 1013.7 - 0.0 - - 10 - - - -
20/08:00pm 20.0 SE 10 12 1013.8 - 0.0 - - 10 - - - -
20/07:30pm 20.7 SE 10 12 1013.9 - 0.0 - - 10 - - - -
20/07:00pm 21.1 SE 11 13 1013.9 - 0.0 - - 10 - - - -
20/06:30pm 21.8 SE 11 15 1013.9 - 0.0 - - 10 - - - -
20/06:00pm 21.8 SE 13 15 1013.8 - 0.0 - - 10 - - - -
20/05:30pm 21.6 SE 14 17 1013.8 - 0.0 - - 10 - - - -
20/05:00pm 23.0 SE 13 17 1014.2 - 0.0 - - 10 - - - -
20/04:30pm 22.2 SE 11 16 1014.7 - 0.0 - - 10 - - - -
20/04:00pm 22.0 E 11 16 1015.1 - 0.0 - - 10 - - - -
20/03:30pm 21.7 E 11 15 1015.5 - 0.0 - - 10 - - - -
20/03:00pm 22.3 E 11 15 1015.9 - 0.0 - - 10 - - - -
20/02:30pm 23.3 E 11 15 1016.5 - 0.0 - - 10 - - - -
20/02:00pm 22.7 E 12 16 1016.9 - 0.0 - - 10 - - - -
20/01:30pm 21.0 E 12 16 1017.5 - 0.0 - - 10 - - - -
20/01:00pm 20.8 E 11 16 1017.7 - 0.0 - - 10 - - - -
20/12:30pm 21.3 E 11 16 1018.0 - 0.0 - - 10 - - - -
20/12:00pm 20.3 E 10 14 1018.4 - 0.0 - - 10 - - - -
20/11:30am 20.3 E 11 15 1018.6 - 0.0 - Partly cloudy 10 - - - -
20/11:00am 20.4 ENE 10 15 1018.8 - 0.0 - Partly cloudy 10 - - - -
20/10:30am 20.4 ENE 10 13 1019.0 - 0.0 - Partly cloudy 10 - - - -
20/10:00am 20.1 E 10 14 1019.1 - 0.0 - Partly cloudy 10 - - - -
20/09:30am 19.7 ENE 9 15 1019.5 - 0.0 - Partly cloudy 10 - - - -
20/09:00am 20.2 E 10 14 1019.3 - 0.0 - Mostly clear 10 - - - -
20/08:30am 19.1 E 11 14 1019.2 - 0.0 - Partly cloudy 10 - - - -
20/08:00am 18.6 ENE 10 13 1019.1 - 0.0 - Cloudy 10 - - - -
20/07:30am 18.0 ENE 7 9 1019.0 - 0.0 - Partly cloudy 10 - - - -
20/07:00am 17.3 ENE 8 11 1018.9 - 0.0 - Partly cloudy 10 - - - -
20/06:30am 16.5 ENE 7 10 1018.6 - 0.0 - Partly cloudy 10 - - - -
20/06:00am 16.7 E 9 11 1018.5 - 0.0 - Mostly cloudy 10 - - - -
20/05:30am 16.7 E 9 13 1018.4 - 0.0 - Cloudy 10 - - - -
20/05:00am 16.6 ENE 8 10 1018.7 - 0.0 - Cloudy 10 - - - -
20/04:30am 16.8 ENE 8 11 1018.6 - 0.0 - Cloudy 10 - - - -
20/04:00am 16.8 E 10 13 1018.5 - 0.0 - Cloudy 10 - - - -
20/03:30am 16.8 E 10 12 1018.4 - 0.0 - Cloudy 10 - - - -
20/03:00am 16.9 E 10 13 1018.6 - 0.0 - Cloudy 10 - - - -
20/02:30am 15.6 ESE 8 10 1018.7 - 0.0 - Partly cloudy 10 - - - -
20/02:00am 15.6 ESE 10 12 1019.0 - 0.0 - Partly cloudy 10 - - - -
20/01:30am 15.6 ESE 10 12 1019.5 - 0.0 - - 10 - - - -
20/01:00am 15.6 SE 11 14 1019.9 - 0.0 - - 10 - - - -
20/12:30am 15.5 SE 10 14 1020.3 - 0.0 - - 10 - - - -
20/12:00am 15.4 SE 9 12 1020.7 - 0.0 - - 10 - - - -
 
Date/Time
CDT
Temp

°C
Wind Pressure Rain
since 9am
mm
Weather Cloud Vis
km
Sea
Height
m
Swell
Dir
 
Speed
knots
Gust
knots
hPa Trend Height
m
Period
s
Dir
19/11:30pm 15.9 SSE 11 14 1021.0 - 0.0 - - 10 - - - -
19/11:00pm 15.7 SSE 12 14 1021.2 - 0.0 - - 10 - - - -
19/10:30pm 15.9 SSE 11 14 1021.1 - 0.0 - - 10 - - - -
19/10:00pm 16.1 SSE 13 16 1021.1 - 0.0 - - 10 - - - -
19/09:30pm 16.2 SSE 12 16 1021.1 - 0.0 - - 10 - - - -
19/09:00pm 16.6 S 11 14 1020.9 - 0.0 - - 10 - - - -
19/08:30pm 17.1 S 12 14 1020.8 - 0.0 - - 10 - - - -
19/08:00pm 17.9 S 13 16 1020.7 - 0.0 - - 10 - - - -
19/07:30pm 18.5 S 14 18 1020.7 - 0.0 - - 10 - - - -
19/07:00pm 19.3 S 15 18 1020.5 - 0.0 - - 10 - - - -
19/06:30pm 20.1 S 14 17 1020.4 - 0.0 - - 10 - - - -
19/06:00pm 20.8 S 13 17 1020.3 - 0.0 - - 10 - - - -
19/05:30pm 21.3 SE 14 17 1020.2 - 0.0 - - 10 - - - -
19/05:00pm 20.5 SE 14 17 1020.4 - 0.0 - - 10 - - - -
19/04:30pm 20.7 SE 13 18 1020.6 - 0.0 - - 10 - - - -
19/04:00pm 20.6 SE 12 19 1020.7 - 0.0 - - 10 - - - -
19/03:30pm 21.3 SE 13 17 1020.9 - 0.0 - - 10 - - - -
19/03:00pm 20.2 SE 12 18 1021.2 - 0.0 - - 10 - - - -
19/02:30pm 21.3 SE 11 16 1021.3 - 0.0 - - 10 - - - -
19/02:00pm 20.3 SE 11 15 1021.4 - 0.0 - - 10 - - - -
19/01:30pm 20.5 SE 10 16 1021.5 - 0.0 - - 10 - - - -
19/01:00pm 21.3 SE 10 15 1021.5 - 0.0 - - 10 - - - -
19/12:30pm 21.1 SE 10 14 1021.7 - 0.0 - - 10 - - - -
19/12:00pm 20.3 SE 11 14 1021.7 - 0.0 - - 10 - - - -
19/11:30am 20.2 SSE 9 12 1021.8 - 0.0 - - 10 - - - -
19/11:00am 19.8 SE 8 14 1021.8 - 0.0 - - 10 - - - -
19/10:30am 19.1 SE 9 12 1021.7 - 0.0 - - 10 - - - -
19/10:00am 19.0 SE 7 11 1021.8 - 0.0 - Partly cloudy 10 - - - -
19/09:30am 18.6 SE 6 11 1021.6 - 0.0 - Partly cloudy 10 - - - -
19/09:00am 17.1 S 6 8 1021.4 - 0.0 - Partly cloudy 10 - - - -
19/08:30am 16.8 SSW 7 8 1021.2 - 0.0 - Partly cloudy 10 - - - -
19/08:00am 17.6 S 9 11 1020.6 - 0.0 - Partly cloudy 10 - - - -
19/07:30am 16.0 NW 4 6 1020.3 - 0.0 - Cloudy 10 - - - -
19/07:00am 12.0 NNW 1 4 1019.9 - 0.0 - Partly cloudy 10 - - - -
19/06:30am 10.7 WNW 4 5 1019.4 - 0.0 - Partly cloudy 10 - - - -
19/06:00am 11.0 WNW 3 4 1019.1 - 0.0 - Mostly cloudy 10 - - - -
19/05:30am 10.7 SW 6 7 1018.8 - 0.0 - Partly cloudy 10 - - - -
19/05:00am 11.4 SW 6 7 1018.8 - 0.0 - - 10 - - - -
19/04:30am 12.0 SW 6 7 1018.7 - 0.0 - - 10 - - - -
19/04:00am 12.1 SW 7 8 1018.9 - 0.0 - - 10 - - - -
19/03:30am 12.0 SW 6 7 1018.8 - 0.0 - - 10 - - - -
19/03:00am 12.2 SW 7 8 1018.9 - 0.0 - - 10 - - - -
19/02:30am 12.5 SW 6 8 1019.0 - 0.0 - - 10 - - - -
19/02:00am 12.5 SW 6 8 1019.1 - 0.0 - - 10 - - - -
19/01:30am 12.3 SW 5 7 1019.4 - 0.0 - - 10 - - - -
19/01:00am 12.6 SW 6 8 1019.3 - 0.0 - - 10 - - - -
19/12:30am 12.9 SW 7 8 1019.3 - 0.0 - - 10 - - - -
19/12:00am 13.2 SW 7 9 1019.2 - 0.0 - - 10 - - - -
 
Date/Time
CDT
Temp

°C
Wind Pressure Rain
since 9am
mm
Weather Cloud Vis
km
Sea
Height
m
Swell
Dir
 
Speed
knots
Gust
knots
hPa Trend Height
m
Period
s
Dir
18/11:30pm 14.2 SW 8 11 1019.2 - 0.0 - - 10 - - - -
18/11:00pm 15.0 SSW 10 13 1019.1 - 0.0 - Partly cloudy 10 - - - -
18/10:30pm 15.4 SSW 10 12 1018.8 - 0.0 - Partly cloudy 10 - - - -
18/10:00pm 15.4 SW 8 11 1018.6 - 0.0 - Partly cloudy 10 - - - -
18/09:30pm 15.9 SSW 10 14 1018.2 - 0.0 - Partly cloudy 10 - - - -
18/09:00pm 16.8 SSW 10 12 1018.0 - 0.0 - Partly cloudy 10 - - - -
18/08:30pm 16.6 SSW 13 16 1017.8 - 0.0 - Partly cloudy 10 - - - -
18/08:00pm 17.6 S 13 18 1017.5 - 0.0 - Partly cloudy 10 - - - -
18/07:30pm 17.9 S 15 19 1017.0 - 0.0 - Partly cloudy 10 - - - -
18/07:00pm 18.3 S 17 22 1016.5 - 0.0 - Partly cloudy 10 - - - -
18/06:30pm 19.0 S 18 22 1015.9 - 0.0 - Partly cloudy 10 - - - -
18/06:00pm 20.9 SW 15 21 1015.6 - 0.0 - Partly cloudy 10 - - - -
18/05:30pm 19.2 S 17 22 1015.4 - 0.0 - Partly cloudy 10 - - - -
18/05:00pm 21.0 SSW 17 23 1015.2 - 0.0 - Cloudy 10 - - - -
18/04:30pm 22.4 WSW 17 24 1015.1 - 0.0 - Partly cloudy 10 - - - -
18/04:05pm 23.1 SW 18 28 1014.7 - 0.0 - Partly cloudy 10 - - - -
18/04:00pm 22.5 SW 17 26 1014.7 - 0.0 - Partly cloudy 10 - - - -
18/03:39pm 23.1 SW 16 27 1014.3 - 0.0 - Partly cloudy 10 - - - -
18/03:30pm 22.4 SW 16 24 1014.3 - 0.0 - Partly cloudy 10 - - - -
18/03:05pm 23.7 SW 16 25 1014.1 - 0.0 - Partly cloudy 10 - - - -
18/03:00pm 23.6 SW 17 24 1014.1 - 0.0 - Partly cloudy 10 - - - -
18/02:31pm 23.5 SW 15 25 1014.0 - 0.0 - Partly cloudy 10 - - - -
18/02:30pm 23.7 SW 14 21 1014.0 - 0.0 - Partly cloudy 10 - - - -
18/02:00pm 22.3 SW 17 25 1014.1 - 0.0 - Partly cloudy 10 - - - -
18/01:30pm 22.4 SW 16 25 1014.0 - 0.0 - Partly cloudy 10 - - - -
18/01:04pm 23.1 SW 17 27 1013.8 - 0.0 - Partly cloudy 10 - - - -
18/01:00pm 21.3 SW 17 23 1013.9 - 0.0 - Partly cloudy 10 - - - -
18/12:50pm 22.4 WSW 17 31 1013.7 - 0.0 - Partly cloudy 10 - - - -
18/12:30pm 22.5 WSW 15 23 1013.7 - 0.0 - Partly cloudy 10 - - - -
18/12:00pm 21.7 WSW 16 21 1013.6 - 0.0 - Mostly cloudy 10 - - - -
18/11:30am 22.1 WSW 18 24 1013.3 - 0.0 - Partly cloudy 10 - - - -
18/11:00am 21.6 WSW 16 22 1013.3 - 0.0 - Partly cloudy 10 - - - -
18/10:30am 21.8 WSW 15 21 1013.0 - 0.0 - Partly cloudy 10 - - - -
18/10:00am 21.7 WSW 15 21 1012.8 - 0.0 - Partly cloudy 10 - - - -
18/09:30am 20.1 WSW 17 21 1012.5 - 0.0 - Partly cloudy 10 - - - -
18/09:00am 19.9 WSW 15 21 1012.1 - 0.0 - Cloudy 10 - - - -
18/08:30am 18.6 W 12 15 1011.9 - 0.0 - Partly cloudy 10 - - - -
18/08:00am 17.5 WNW 11 16 1011.6 - 0.0 - Partly cloudy 10 - - - -
18/07:30am 16.0 NW 9 11 1011.3 - 0.0 - Partly cloudy 10 - - - -
18/07:00am 13.7 WNW 8 9 1011.1 - 0.0 - - 10 - - - -
18/06:30am 12.2 WNW 8 9 1010.9 - 0.0 - - 10 - - - -
18/06:00am 12.2 WNW 8 10 1010.4 - 0.0 - - 10 - - - -
18/05:30am 11.4 WNW 9 11 1010.0 - 0.0 - - 10 - - - -
18/05:00am 11.5 WNW 8 9 1009.5 - 0.0 - - 10 - - - -
18/04:30am 11.8 WNW 8 9 1009.5 - 0.0 - - 10 - - - -
18/04:00am 12.1 WNW 9 10 1009.5 - 0.0 - - 10 - - - -
18/03:30am 12.1 WNW 8 9 1009.4 - 0.0 - - 10 - - - -
18/03:00am 11.9 WNW 8 10 1009.5 - 0.0 - - 10 - - - -
18/02:30am 11.8 NW 8 9 1009.4 - 0.0 - - 10 - - - -
18/02:00am 11.4 NW 6 7 1009.4 - 0.0 - - 10 - - - -
18/01:30am 11.6 NW 8 9 1009.4 - 0.0 - - 10 - - - -
18/01:00am 11.6 WNW 8 8 1009.4 - 0.0 - - 10 - - - -
18/12:30am 11.9 WNW 6 8 1009.5 - 0.0 - - 10 - - - -
18/12:00am 11.4 NW 6 6 1009.5 - 0.0 - - 10 - - - -
 
Date/Time
CDT
Temp

°C
Wind Pressure Rain
since 9am
mm
Weather Cloud Vis
km
Sea
Height
m
Swell
Dir
 
Speed
knots
Gust
knots
hPa Trend Height
m
Period
s
Dir
17/11:30pm 11.8 NW 5 6 1009.8 - 0.0 - - 10 - - - -
17/11:00pm 12.0 NW 7 8 1009.9 - 0.0 - - 10 - - - -
17/10:30pm 12.4 NW 6 7 1009.7 - 0.0 - - 10 - - - -

Other Formats:

Comma delimited format used in spreadsheet applications
http://www.bom.gov.au/fwo/IDS60701/IDS60701.95661.axf

JavaScript Object Notation format (JSON) in row-major order
http://www.bom.gov.au/fwo/IDS60701/IDS60701.95661.json